首页
METAR-TAF:

METAR-TAF

机场 :

Gustavus, 阿拉斯加州, 美国

纬度: 58-25N, 经度: 135-42W, 海拔: 10米

当前天气观测

该预报发布于56分钟前的13:56 UTC
风速10节,风向南转南东,有时为17节阵风
温度 4°C
湿度 70%
气压 1003 hPa
能見度: 16.1公里
阴天层高于3400英尺
小雨

METAR: PAGS 231356Z AUTO 15010G17KT 10SM -RA OVC034 04/M01 A2963 RMK AO2 SLP034 P0000 T00391011

时间: 05:52 (14:52 UTC)

预报

该预报发布于3小时和13分钟前的11:39 UTC
预报有效从23日的 12点(UTC)到 24日的 12点(UTC)
风速11节,风向东南,有时为22节阵风
能見度: 9.7公里
阴天层高于3000英尺
小雨, 轻雾
短暂存在
从 23日的 12点(UTC)到 23日的 16点(UTC)
能見度: 6.4公里
小阵雨, 雪
从 23日的 1800点(UTC)
风速4节,风向东转东南
能見度: 10公里
散云层高于2500英尺
多云层高于5000英尺
附近有阵雨
从 24日的 0100点(UTC)
风速7节,风向
能見度: 10公里
阴天层高于4000英尺

TAF: PAGS 231139Z 2312/2412 13011G22KT 6SM -RA BR OVC030 WS020/12035KT TEMPO 2312/2316 4SM -SHRASN FM231800 12004KT P6SM VCSH SCT025 BKN050 FM240100 17007KT P6SM OVC040 AMD LTD TO CLD VIS AND WIND

超过4000个机场的气象观测和天气预报(METAR&TAF报告)。

可查询的气象台以黄色和红色小点在地图上表示。

将鼠标移到小点上方,可查看气象台名称。

然后点击查看天气观测和预报。

如需切换地图:点击带黑十字的绿色按钮放大地图;点击带横线的绿色按钮缩小地图;或者点击绿色箭头查看邻近地区的地图。


METAR-TAF: